createdAt,value
2018-12-12T00:00:43.682Z,6.80
2018-12-12T00:01:43.688Z,6.70
2018-12-12T00:02:43.702Z,6.80
2018-12-12T00:03:43.719Z,6.50
2018-12-12T00:04:43.730Z,6.70
2018-12-12T00:05:43.750Z,6.10
2018-12-12T00:06:43.765Z,6.60
2018-12-12T00:07:43.778Z,6.50
2018-12-12T00:08:43.798Z,6.70
2018-12-12T00:09:43.813Z,6.60
2018-12-12T00:10:43.828Z,6.90
2018-12-12T00:11:43.843Z,6.60
2018-12-12T00:12:43.854Z,6.80
2018-12-12T00:13:43.877Z,6.70
2018-12-12T00:14:43.886Z,6.20
2018-12-12T00:15:43.907Z,6.70
2018-12-12T00:16:43.926Z,7.10
2018-12-12T00:17:43.941Z,6.80
2018-12-12T00:18:43.964Z,7.00
2018-12-12T00:19:43.978Z,7.60
2018-12-12T00:20:43.998Z,7.00
2018-12-12T00:21:44.002Z,7.60
2018-12-12T00:22:44.026Z,7.30
2018-12-12T00:23:44.033Z,7.10
2018-12-12T00:24:44.060Z,6.70
2018-12-12T00:25:44.069Z,7.00
2018-12-12T00:26:44.083Z,6.80
2018-12-12T00:27:44.091Z,7.20
2018-12-12T00:28:44.113Z,7.10
2018-12-12T00:29:44.141Z,6.40
2018-12-12T00:30:44.145Z,6.50
2018-12-12T00:31:44.160Z,6.70
2018-12-12T00:32:44.174Z,6.60
2018-12-12T00:33:44.216Z,6.90
2018-12-12T00:34:44.223Z,6.70
2018-12-12T00:35:44.236Z,6.90
2018-12-12T00:36:44.239Z,6.80
2018-12-12T00:37:44.262Z,7.70
2018-12-12T00:38:44.275Z,7.60
2018-12-12T00:39:44.315Z,7.20
2018-12-12T00:40:44.303Z,7.80
2018-12-12T00:41:44.320Z,7.70
2018-12-12T00:42:44.334Z,8.20
2018-12-12T00:43:44.345Z,7.90
2018-12-12T00:44:44.364Z,7.40
2018-12-12T00:45:44.382Z,7.50
2018-12-12T00:46:44.401Z,8.10
2018-12-12T00:47:44.417Z,8.00
2018-12-12T00:48:44.441Z,7.70
2018-12-12T00:49:44.544Z,8.10
2018-12-12T00:50:44.459Z,8.10
2018-12-12T00:51:44.475Z,8.00
2018-12-12T00:52:44.499Z,7.20
2018-12-12T00:53:44.509Z,7.70
2018-12-12T00:54:44.528Z,7.50
2018-12-12T00:55:44.544Z,7.60
2018-12-12T00:56:44.551Z,8.10
2018-12-12T00:57:44.566Z,8.10
2018-12-12T00:58:44.601Z,7.70
2018-12-12T00:59:44.600Z,8.00
2018-12-12T01:00:44.623Z,8.20
2018-12-12T01:01:44.651Z,7.80
2018-12-12T01:02:44.657Z,7.90
2018-12-12T01:03:44.659Z,7.70
2018-12-12T01:04:44.682Z,7.60
2018-12-12T01:05:44.692Z,7.70
2018-12-12T01:06:44.711Z,7.70
2018-12-12T01:07:44.722Z,7.90
2018-12-12T01:08:44.742Z,7.20
2018-12-12T01:09:44.757Z,8.00
2018-12-12T01:10:44.770Z,7.90
2018-12-12T01:11:44.784Z,7.30
2018-12-12T01:12:44.799Z,7.90
2018-12-12T01:13:44.818Z,7.80
2018-12-12T01:14:44.839Z,7.80
2018-12-12T01:15:44.847Z,7.80
2018-12-12T01:16:44.864Z,8.20
2018-12-12T01:17:44.887Z,7.80
2018-12-12T01:18:44.900Z,8.10
2018-12-12T01:19:44.929Z,7.50
2018-12-12T01:20:44.928Z,7.70
2018-12-12T01:21:44.941Z,7.70
2018-12-12T01:22:44.955Z,7.90
2018-12-12T01:23:44.981Z,7.80
2018-12-12T01:24:45.002Z,7.80
2018-12-12T01:25:45.082Z,7.70
2018-12-12T01:26:45.064Z,7.10
2018-12-12T01:27:45.037Z,7.60
2018-12-12T01:28:45.051Z,7.80
2018-12-12T01:29:45.069Z,7.60
2018-12-12T01:30:45.085Z,7.90
2018-12-12T01:31:45.101Z,7.60
2018-12-12T01:32:45.118Z,7.80
2018-12-12T01:33:45.134Z,7.90
2018-12-12T01:34:45.153Z,7.70
2018-12-12T01:35:45.163Z,7.90
2018-12-12T01:36:45.183Z,8.30
2018-12-12T01:37:45.194Z,8.30
2018-12-12T01:38:45.211Z,8.40
2018-12-12T01:39:45.230Z,8.00
2018-12-12T01:40:45.249Z,7.50
2018-12-12T01:41:45.264Z,7.70
2018-12-12T01:42:45.336Z,8.10
2018-12-12T01:43:45.287Z,7.90
2018-12-12T01:44:45.307Z,8.20
2018-12-12T01:45:45.318Z,7.80
2018-12-12T01:46:45.334Z,8.70
2018-12-12T01:47:45.356Z,8.00
2018-12-12T01:48:45.367Z,8.20
2018-12-12T01:49:45.380Z,8.40
2018-12-12T01:50:45.394Z,7.90
2018-12-12T01:51:45.411Z,7.90
2018-12-12T01:52:45.433Z,7.80
2018-12-12T01:53:45.442Z,8.20
2018-12-12T01:54:45.459Z,8.10
2018-12-12T01:55:45.478Z,8.20
2018-12-12T01:56:45.491Z,8.30
2018-12-12T01:57:45.509Z,8.20
2018-12-12T01:58:45.538Z,8.10
2018-12-12T01:59:45.541Z,7.90
2018-12-12T02:00:45.557Z,8.20
2018-12-12T02:01:45.572Z,8.20
2018-12-12T02:02:45.591Z,8.40
2018-12-12T02:03:45.599Z,8.30
2018-12-12T02:04:45.620Z,8.90
2018-12-12T02:05:45.633Z,8.00
2018-12-12T02:06:45.668Z,8.80
2018-12-12T02:07:45.666Z,8.50
2018-12-12T02:08:46.272Z,8.90
2018-12-12T02:09:45.696Z,8.30
2018-12-12T02:10:45.711Z,8.10
2018-12-12T02:11:45.761Z,8.30
2018-12-12T02:12:45.748Z,8.30
2018-12-12T02:13:45.759Z,8.60
2018-12-12T02:14:45.781Z,8.70
2018-12-12T02:15:45.792Z,8.10
2018-12-12T02:16:45.826Z,8.20
2018-12-12T02:17:45.873Z,7.70
2018-12-12T02:18:45.852Z,8.80
2018-12-12T02:19:45.859Z,8.10
2018-12-12T02:20:45.907Z,8.00
2018-12-12T02:21:45.905Z,8.50
2018-12-12T02:22:45.905Z,8.50
2018-12-12T02:23:45.925Z,8.70
2018-12-12T02:24:45.968Z,8.70
2018-12-12T02:25:45.953Z,8.40
2018-12-12T02:26:45.967Z,7.90
2018-12-12T02:27:45.989Z,8.50
2018-12-12T02:28:45.999Z,8.00
2018-12-12T02:29:46.022Z,8.50
2018-12-12T02:30:46.038Z,8.30
2018-12-12T02:31:46.055Z,9.00
2018-12-12T02:32:46.059Z,8.70
2018-12-12T02:33:46.081Z,9.10
2018-12-12T02:34:46.119Z,8.50
2018-12-12T02:35:46.118Z,8.10
2018-12-12T02:36:46.137Z,8.40
2018-12-12T02:37:46.141Z,8.30
2018-12-12T02:38:46.154Z,9.20
2018-12-12T02:39:46.169Z,8.60
2018-12-12T02:40:46.199Z,9.00
2018-12-12T02:41:46.206Z,8.80
2018-12-12T02:42:46.218Z,8.30
2018-12-12T02:43:46.251Z,9.20
2018-12-12T02:44:46.254Z,9.20
2018-12-12T02:45:46.279Z,8.40
2018-12-12T02:46:46.313Z,8.90
2018-12-12T02:47:46.303Z,8.70
2018-12-12T02:48:46.317Z,9.30
2018-12-12T02:49:46.337Z,8.90
2018-12-12T02:50:46.357Z,8.80
2018-12-12T02:51:46.365Z,9.20
2018-12-12T02:52:46.383Z,8.60
2018-12-12T02:53:46.395Z,8.50
2018-12-12T02:54:46.414Z,8.80
2018-12-12T02:55:46.449Z,8.70
2018-12-12T02:56:46.444Z,9.40
2018-12-12T02:57:46.497Z,9.20
2018-12-12T02:58:46.476Z,9.10
2018-12-12T02:59:46.489Z,8.80
2018-12-12T03:00:46.543Z,8.90
2018-12-12T03:01:46.527Z,9.10
2018-12-12T03:02:46.538Z,8.60
2018-12-12T03:03:46.568Z,9.40
2018-12-12T03:04:46.582Z,9.00
2018-12-12T03:05:46.593Z,8.90
2018-12-12T03:06:46.599Z,9.50
2018-12-12T03:07:46.618Z,9.30
2018-12-12T03:08:46.638Z,8.60
2018-12-12T03:09:46.646Z,9.30
2018-12-12T03:10:46.669Z,8.60
2018-12-12T03:11:46.695Z,9.10
2018-12-12T03:12:46.702Z,8.50
2018-12-12T03:13:46.714Z,9.50
2018-12-12T03:14:46.737Z,8.90
2018-12-12T03:15:46.742Z,9.00
2018-12-12T03:16:46.765Z,9.20
2018-12-12T03:17:46.782Z,9.20
2018-12-12T03:18:46.803Z,9.10
2018-12-12T03:19:46.817Z,9.30
2018-12-12T03:20:46.818Z,8.80
2018-12-12T03:21:46.836Z,8.70
2018-12-12T03:22:46.878Z,8.50
2018-12-12T03:23:46.876Z,8.90
2018-12-12T03:24:46.882Z,8.70
2018-12-12T03:25:46.918Z,8.80
2018-12-12T03:26:46.916Z,8.60
2018-12-12T03:27:47.079Z,8.40
2018-12-12T03:28:46.948Z,9.10
2018-12-12T03:29:46.971Z,9.20
2018-12-12T03:30:46.985Z,8.60
2018-12-12T03:31:47.004Z,8.80
2018-12-12T03:32:47.018Z,8.90
2018-12-12T03:33:47.043Z,8.60
2018-12-12T03:34:47.046Z,9.00
2018-12-12T03:35:47.058Z,8.80
2018-12-12T03:36:47.084Z,8.80
2018-12-12T03:37:47.102Z,9.40
2018-12-12T03:38:47.108Z,9.30
2018-12-12T03:39:47.122Z,8.70
2018-12-12T03:40:47.135Z,9.80
2018-12-12T03:41:47.158Z,9.40
2018-12-12T03:42:47.168Z,9.30
2018-12-12T03:43:47.186Z,8.60
2018-12-12T03:44:47.199Z,8.80
2018-12-12T03:45:47.224Z,8.50
2018-12-12T03:46:47.242Z,9.00
2018-12-12T03:47:47.250Z,8.90
2018-12-12T03:48:47.266Z,9.20
2018-12-12T03:49:47.288Z,9.50
2018-12-12T03:50:47.310Z,9.90
2018-12-12T03:51:47.321Z,9.30
2018-12-12T03:52:47.336Z,8.80
2018-12-12T03:53:47.355Z,8.70
2018-12-12T03:54:47.408Z,9.00
2018-12-12T03:55:47.383Z,9.20
2018-12-12T03:56:47.401Z,8.50
2018-12-12T03:57:47.412Z,9.30
2018-12-12T03:58:47.438Z,9.60
2018-12-12T03:59:47.445Z,9.10
2018-12-12T04:00:47.474Z,9.00
2018-12-12T04:01:47.482Z,9.70
2018-12-12T04:02:47.490Z,9.50
2018-12-12T04:03:47.507Z,9.70
2018-12-12T04:04:47.521Z,9.20
2018-12-12T04:05:47.545Z,10.00
2018-12-12T04:06:47.561Z,9.60
2018-12-12T04:07:47.593Z,9.50
2018-12-12T04:08:47.595Z,9.80
2018-12-12T04:09:47.605Z,9.50
2018-12-12T04:10:47.620Z,9.60
2018-12-12T04:11:47.647Z,10.30
2018-12-12T04:12:47.653Z,10.10
2018-12-12T04:13:47.666Z,10.30
2018-12-12T04:14:47.688Z,10.40
2018-12-12T04:15:47.700Z,9.60
2018-12-12T04:16:47.718Z,10.50
2018-12-12T04:17:47.729Z,9.70
2018-12-12T04:18:47.750Z,10.60
2018-12-12T04:19:47.765Z,9.90
2018-12-12T04:20:47.776Z,10.20
2018-12-12T04:21:47.817Z,10.50
2018-12-12T04:22:47.811Z,10.20
2018-12-12T04:23:47.836Z,9.70
2018-12-12T04:24:47.838Z,10.60
2018-12-12T04:25:47.963Z,10.00
2018-12-12T04:26:47.874Z,10.10
2018-12-12T04:27:47.897Z,9.70
2018-12-12T04:28:47.909Z,10.10
2018-12-12T04:29:47.923Z,9.50
2018-12-12T04:30:47.943Z,9.80
2018-12-12T04:31:47.953Z,9.50
2018-12-12T04:32:47.970Z,9.50
2018-12-12T04:33:48.053Z,9.50
2018-12-12T04:34:48.004Z,9.20
2018-12-12T04:35:48.017Z,9.60
2018-12-12T04:36:48.031Z,10.20
2018-12-12T04:37:48.054Z,9.90
2018-12-12T04:38:48.137Z,10.10
2018-12-12T04:39:48.085Z,9.70
2018-12-12T04:40:48.101Z,9.50
2018-12-12T04:41:48.136Z,9.90
2018-12-12T04:42:48.127Z,10.20
2018-12-12T04:43:48.142Z,10.10
2018-12-12T04:44:48.159Z,10.40
2018-12-12T04:45:48.179Z,10.20
2018-12-12T04:46:48.193Z,10.20
2018-12-12T04:47:48.221Z,9.70
2018-12-12T04:48:48.223Z,10.50
2018-12-12T04:49:48.249Z,11.30
2018-12-12T04:50:48.258Z,10.40
2018-12-12T04:51:48.279Z,10.40
2018-12-12T04:52:48.293Z,10.20
2018-12-12T04:53:48.309Z,9.90
2018-12-12T04:54:48.331Z,9.00
2018-12-12T04:55:48.334Z,10.00
2018-12-12T04:56:48.351Z,9.90
2018-12-12T04:57:48.369Z,9.40
2018-12-12T04:58:48.382Z,9.40
2018-12-12T04:59:48.395Z,9.90
2018-12-12T05:00:48.424Z,9.50
2018-12-12T05:01:48.436Z,9.60
2018-12-12T05:02:48.456Z,9.50
2018-12-12T05:03:48.462Z,9.40
2018-12-12T05:04:48.501Z,10.50
2018-12-12T05:05:48.496Z,9.90
2018-12-12T05:06:48.520Z,9.40
2018-12-12T05:07:48.528Z,10.20
2018-12-12T05:08:48.558Z,10.00
2018-12-12T05:09:48.557Z,10.30
2018-12-12T05:10:48.572Z,10.20
2018-12-12T05:11:48.589Z,10.40
2018-12-12T05:12:48.611Z,11.10
2018-12-12T05:13:48.622Z,9.90
2018-12-12T05:14:48.742Z,10.50
2018-12-12T05:15:48.651Z,9.80
2018-12-12T05:16:48.676Z,10.50
2018-12-12T05:17:48.687Z,10.30
2018-12-12T05:18:48.704Z,10.30
2018-12-12T05:19:48.722Z,10.40
2018-12-12T05:20:48.737Z,10.60
2018-12-12T05:21:48.752Z,10.10
2018-12-12T05:22:48.766Z,10.20
2018-12-12T05:23:48.778Z,10.30
2018-12-12T05:24:48.798Z,9.70
2018-12-12T05:25:48.811Z,9.60
2018-12-12T05:26:48.837Z,9.80
2018-12-12T05:27:48.932Z,9.60
2018-12-12T05:28:48.860Z,10.00
2018-12-12T05:29:48.874Z,10.30
2018-12-12T05:30:48.891Z,9.70
2018-12-12T05:31:48.911Z,10.80
2018-12-12T05:32:48.924Z,10.90
2018-12-12T05:33:48.941Z,10.90
2018-12-12T05:34:48.957Z,11.20
2018-12-12T05:35:48.969Z,11.10
2018-12-12T05:36:48.988Z,10.00
2018-12-12T05:37:51.872Z,10.80
2018-12-12T05:38:49.016Z,10.60
2018-12-12T05:39:49.070Z,10.80
2018-12-12T05:40:49.105Z,10.20
2018-12-12T05:41:49.071Z,9.90
2018-12-12T05:42:49.095Z,11.30
2018-12-12T05:43:49.098Z,10.10
2018-12-12T05:44:49.120Z,10.20
2018-12-12T05:45:49.136Z,10.50
2018-12-12T05:46:49.162Z,10.90
2018-12-12T05:47:49.163Z,10.70
2018-12-12T05:48:49.176Z,11.40
2018-12-12T05:49:49.210Z,10.60
2018-12-12T05:50:49.209Z,10.90
2018-12-12T05:51:49.224Z,10.60
2018-12-12T05:52:49.242Z,11.30
2018-12-12T05:53:49.258Z,11.00
2018-12-12T05:54:49.274Z,11.70
2018-12-12T05:55:49.290Z,10.60
2018-12-12T05:56:52.396Z,11.10
2018-12-12T05:57:49.321Z,11.50
2018-12-12T05:58:49.334Z,11.30
2018-12-12T05:59:49.348Z,10.90
2018-12-12T06:00:49.369Z,11.30
2018-12-12T06:01:49.381Z,11.60
2018-12-12T06:02:49.413Z,11.60
2018-12-12T06:03:49.577Z,12.20
2018-12-12T06:04:49.441Z,11.80
2018-12-12T06:05:49.461Z,12.60
2018-12-12T06:06:49.462Z,12.40
2018-12-12T06:07:49.490Z,13.60
2018-12-12T06:08:49.528Z,12.50
2018-12-12T06:09:49.510Z,12.40
2018-12-12T06:10:49.618Z,12.80
2018-12-12T06:11:49.549Z,12.10
2018-12-12T06:12:49.578Z,12.50
2018-12-12T06:13:49.621Z,12.30
2018-12-12T06:14:49.609Z,12.20
2018-12-12T06:15:49.625Z,12.00
2018-12-12T06:16:49.623Z,12.10
2018-12-12T06:17:49.646Z,12.30
2018-12-12T06:18:49.660Z,12.10
2018-12-12T06:19:49.702Z,12.10
2018-12-12T06:20:49.684Z,12.20
2018-12-12T06:21:49.699Z,12.20
2018-12-12T06:22:49.717Z,12.50
2018-12-12T06:23:49.790Z,12.30
2018-12-12T06:24:49.749Z,12.00
2018-12-12T06:25:49.767Z,12.40
2018-12-12T06:26:49.789Z,12.60
2018-12-12T06:27:49.798Z,12.40
2018-12-12T06:28:49.814Z,12.30
2018-12-12T06:29:49.835Z,13.30
2018-12-12T06:30:49.845Z,13.30
2018-12-12T06:31:49.854Z,13.30
2018-12-12T06:32:49.880Z,13.30
2018-12-12T06:33:49.885Z,12.50
2018-12-12T06:34:49.905Z,13.00
2018-12-12T06:35:49.921Z,13.10
2018-12-12T06:36:49.937Z,12.30
2018-12-12T06:37:49.956Z,12.50
2018-12-12T06:38:49.974Z,12.80
2018-12-12T06:39:50.093Z,11.80
2018-12-12T06:40:50.002Z,11.80
2018-12-12T06:41:50.014Z,12.30
2018-12-12T06:42:50.039Z,12.30
2018-12-12T06:43:50.048Z,12.20
2018-12-12T06:44:50.063Z,13.00
2018-12-12T06:45:50.078Z,12.40
2018-12-12T06:46:50.108Z,12.50
2018-12-12T06:47:50.120Z,12.50
2018-12-12T06:48:50.130Z,12.30
2018-12-12T06:49:50.270Z,11.90
2018-12-12T06:50:50.159Z,11.70
2018-12-12T06:51:50.177Z,11.70
2018-12-12T06:52:50.196Z,11.60
2018-12-12T06:53:50.211Z,11.90
2018-12-12T06:54:50.218Z,12.40
2018-12-12T06:55:50.235Z,12.00
2018-12-12T06:56:50.255Z,12.10
2018-12-12T06:57:50.331Z,12.00
2018-12-12T06:58:50.286Z,12.40
2018-12-12T06:59:50.301Z,11.60
2018-12-12T07:00:50.329Z,11.70
2018-12-12T07:01:50.343Z,12.20
2018-12-12T07:02:50.345Z,11.90
2018-12-12T07:03:50.373Z,10.20
2018-12-12T07:04:50.389Z,11.00
2018-12-12T07:05:50.422Z,11.10
2018-12-12T07:06:50.408Z,12.00
2018-12-12T07:07:50.426Z,12.00
2018-12-12T07:08:50.441Z,11.70
2018-12-12T07:09:50.454Z,12.70
2018-12-12T07:10:50.480Z,13.10
2018-12-12T07:11:50.500Z,15.50
2018-12-12T07:12:50.505Z,14.10
2018-12-12T07:13:50.518Z,13.30
2018-12-12T07:14:50.538Z,13.20
2018-12-12T07:15:50.554Z,12.20
2018-12-12T07:16:50.570Z,11.20
2018-12-12T07:17:50.588Z,11.40
2018-12-12T07:18:50.612Z,12.10
2018-12-12T07:19:50.614Z,11.40
2018-12-12T07:20:50.643Z,11.20
2018-12-12T07:21:50.649Z,10.90
2018-12-12T07:22:50.668Z,9.80
2018-12-12T07:23:50.681Z,9.60
2018-12-12T07:24:50.763Z,10.50
2018-12-12T07:25:50.716Z,9.80
2018-12-12T07:26:50.719Z,9.50
2018-12-12T07:27:50.743Z,9.40
2018-12-12T07:28:50.781Z,9.50
2018-12-12T07:29:50.767Z,8.60
2018-12-12T07:30:50.783Z,9.20
2018-12-12T07:31:50.798Z,9.80
2018-12-12T07:32:50.819Z,9.00
2018-12-12T07:33:50.848Z,9.00
2018-12-12T07:34:50.849Z,9.90
2018-12-12T07:35:50.871Z,9.50
2018-12-12T07:36:50.884Z,10.30
2018-12-12T07:37:50.902Z,9.80
2018-12-12T07:38:50.916Z,9.30
2018-12-12T07:39:50.925Z,9.50
2018-12-12T07:40:50.948Z,9.20
2018-12-12T07:41:50.962Z,9.10
2018-12-12T07:42:50.976Z,9.60
2018-12-12T07:43:50.996Z,9.70
2018-12-12T07:44:51.014Z,9.80
2018-12-12T07:45:51.032Z,10.20
2018-12-12T07:46:51.063Z,10.60
2018-12-12T07:47:51.056Z,10.10
2018-12-12T07:48:51.074Z,9.80
2018-12-12T07:49:51.088Z,9.00
2018-12-12T07:50:51.616Z,9.80
2018-12-12T07:51:51.118Z,9.50
2018-12-12T07:52:51.134Z,10.70
2018-12-12T07:53:51.152Z,10.60
2018-12-12T07:54:51.369Z,10.00
2018-12-12T07:55:51.212Z,9.80
2018-12-12T07:56:51.193Z,10.20
2018-12-12T07:57:51.211Z,10.10
2018-12-12T07:58:51.230Z,10.60
2018-12-12T07:59:51.248Z,9.60
2018-12-12T08:00:51.278Z,9.90
2018-12-12T08:01:51.276Z,9.60
2018-12-12T08:02:51.304Z,10.90
2018-12-12T08:03:51.308Z,11.30
2018-12-12T08:04:51.364Z,9.60
2018-12-12T08:05:51.340Z,9.70
2018-12-12T08:06:51.353Z,10.20
2018-12-12T08:07:51.373Z,12.00
2018-12-12T08:08:51.389Z,13.40
2018-12-12T08:09:51.403Z,11.90
2018-12-12T08:10:51.418Z,11.20
2018-12-12T08:11:51.436Z,10.00
2018-12-12T08:12:51.449Z,9.90
2018-12-12T08:13:51.468Z,10.20
2018-12-12T08:14:51.481Z,10.40
2018-12-12T08:15:51.511Z,9.50
2018-12-12T08:16:51.518Z,9.60
2018-12-12T08:17:51.556Z,10.20
2018-12-12T08:18:51.550Z,10.70
2018-12-12T08:19:51.558Z,10.50
2018-12-12T08:20:51.584Z,10.30
2018-12-12T08:21:51.597Z,10.90
2018-12-12T08:22:51.606Z,10.40
2018-12-12T08:23:51.619Z,10.30
2018-12-12T08:24:51.646Z,14.10
2018-12-12T08:25:51.663Z,20.60
2018-12-12T08:26:51.670Z,16.90
2018-12-12T08:27:51.695Z,15.00
2018-12-12T08:28:51.706Z,16.00
2018-12-12T08:29:51.862Z,17.50
2018-12-12T08:30:51.737Z,20.20
2018-12-12T08:31:51.755Z,19.20
2018-12-12T08:32:51.802Z,15.20
2018-12-12T08:33:51.786Z,12.50
2018-12-12T08:34:51.799Z,13.40
2018-12-12T08:35:51.814Z,17.40
2018-12-12T08:36:51.847Z,16.10
2018-12-12T08:37:51.868Z,14.60
2018-12-12T08:38:51.868Z,14.20
2018-12-12T08:39:51.876Z,15.20
2018-12-12T08:40:51.897Z,15.00
2018-12-12T08:41:51.909Z,13.30
2018-12-12T08:42:51.932Z,14.40
2018-12-12T08:43:51.961Z,13.80
2018-12-12T08:44:51.963Z,21.10
2018-12-12T08:45:51.985Z,17.50
2018-12-12T08:46:51.992Z,14.70
2018-12-12T08:47:52.013Z,14.70
2018-12-12T08:48:52.031Z,14.90
2018-12-12T08:49:52.043Z,13.60
2018-12-12T08:50:52.063Z,17.90
2018-12-12T08:51:52.080Z,20.40
2018-12-12T08:52:52.091Z,17.10
2018-12-12T08:53:52.118Z,23.40
2018-12-12T08:54:52.134Z,23.20
2018-12-12T08:55:52.139Z,17.00
2018-12-12T08:56:52.153Z,16.00
2018-12-12T08:57:52.175Z,12.80
2018-12-12T08:58:52.236Z,13.80
2018-12-12T08:59:52.199Z,31.20
2018-12-12T09:00:52.217Z,18.10
2018-12-12T09:01:52.242Z,17.80
2018-12-12T09:02:52.248Z,15.00
2018-12-12T09:03:52.266Z,27.20
2018-12-12T09:04:52.285Z,32.50
2018-12-12T09:05:52.297Z,28.00
2018-12-12T09:06:52.320Z,20.90
2018-12-12T09:07:52.332Z,15.70
2018-12-12T09:08:52.353Z,15.40
2018-12-12T09:09:52.373Z,16.60
2018-12-12T09:10:52.385Z,15.90
2018-12-12T09:11:52.397Z,22.80
2018-12-12T09:12:52.410Z,23.00
2018-12-12T09:13:52.428Z,16.80
2018-12-12T09:14:52.455Z,17.00
2018-12-12T09:15:52.459Z,22.40
2018-12-12T09:16:52.481Z,21.90
2018-12-12T09:17:52.498Z,15.10
2018-12-12T09:18:52.506Z,14.20
2018-12-12T09:19:52.525Z,12.30
2018-12-12T09:20:52.540Z,14.40
2018-12-12T09:21:52.560Z,17.80
2018-12-12T09:22:52.574Z,17.20
2018-12-12T09:23:52.588Z,13.90
2018-12-12T09:24:52.605Z,14.70
2018-12-12T09:25:52.631Z,13.80
2018-12-12T09:26:52.639Z,16.50
2018-12-12T09:27:52.664Z,17.60
2018-12-12T09:28:52.679Z,14.40
2018-12-12T09:29:52.694Z,13.30
2018-12-12T09:30:52.710Z,14.30
2018-12-12T09:31:52.727Z,17.30
2018-12-12T09:32:52.737Z,16.80
2018-12-12T09:33:52.750Z,16.30
2018-12-12T09:34:52.773Z,13.90
2018-12-12T09:35:52.785Z,14.00
2018-12-12T09:36:52.803Z,13.60
2018-12-12T09:37:52.834Z,14.90
2018-12-12T09:38:52.834Z,14.50
2018-12-12T09:39:52.861Z,14.90
2018-12-12T09:40:52.874Z,13.50
2018-12-12T09:41:52.888Z,12.90
2018-12-12T09:42:52.966Z,12.80
2018-12-12T09:43:52.922Z,12.90
2018-12-12T09:44:52.932Z,14.10
2018-12-12T09:45:52.952Z,13.50
2018-12-12T09:46:52.966Z,13.60
2018-12-12T09:47:52.986Z,14.10
2018-12-12T09:48:53.005Z,12.20
2018-12-12T09:49:53.019Z,11.30
2018-12-12T09:50:53.033Z,11.00
2018-12-12T09:51:53.054Z,12.10
2018-12-12T09:52:53.082Z,18.60
2018-12-12T09:53:53.083Z,16.10
2018-12-12T09:54:53.100Z,15.80
2018-12-12T09:55:53.114Z,12.30
2018-12-12T09:56:53.139Z,14.10
2018-12-12T09:57:53.147Z,20.10
2018-12-12T09:58:53.165Z,15.70
2018-12-12T09:59:53.180Z,13.80
2018-12-12T10:00:53.199Z,13.70
2018-12-12T10:01:53.223Z,13.60
2018-12-12T10:02:53.232Z,13.80
2018-12-12T10:03:53.249Z,13.10
2018-12-12T10:04:53.288Z,12.30
2018-12-12T10:05:53.286Z,14.10
2018-12-12T10:06:53.300Z,12.70
2018-12-12T10:07:53.314Z,13.00
2018-12-12T10:08:53.333Z,12.50
2018-12-12T10:09:53.351Z,13.20
2018-12-12T10:10:53.367Z,13.60
2018-12-12T10:11:53.387Z,12.20
2018-12-12T10:12:53.436Z,13.60
2018-12-12T10:13:53.417Z,13.30
2018-12-12T10:14:53.435Z,13.60
2018-12-12T10:15:53.452Z,12.20
2018-12-12T10:16:53.617Z,11.00
2018-12-12T10:17:53.486Z,11.50
2018-12-12T10:18:53.681Z,10.90
2018-12-12T10:19:53.515Z,11.60
2018-12-12T10:20:53.532Z,10.60
2018-12-12T10:21:53.551Z,11.10
2018-12-12T10:22:53.582Z,11.40
2018-12-12T10:23:53.581Z,11.20
2018-12-12T10:24:53.599Z,11.70
2018-12-12T10:25:53.615Z,10.90
2018-12-12T10:26:53.675Z,11.00
2018-12-12T10:27:53.656Z,10.10
2018-12-12T10:28:53.667Z,10.60
2018-12-12T10:29:53.684Z,10.40
2018-12-12T10:30:53.706Z,11.30
2018-12-12T10:31:53.791Z,13.00
2018-12-12T10:32:53.741Z,12.60
2018-12-12T10:33:53.764Z,10.80
2018-12-12T10:34:53.778Z,11.00
2018-12-12T10:35:53.795Z,11.50
2018-12-12T10:36:53.803Z,12.30
2018-12-12T10:37:53.821Z,11.70
2018-12-12T10:38:53.842Z,10.90
2018-12-12T10:39:53.858Z,11.00
2018-12-12T10:40:53.875Z,10.70
2018-12-12T10:41:53.899Z,11.30
2018-12-12T10:42:53.907Z,11.00
2018-12-12T10:43:53.955Z,10.40
2018-12-12T10:44:53.938Z,11.50
2018-12-12T10:45:53.954Z,11.40
2018-12-12T10:46:53.971Z,10.20
2018-12-12T10:47:53.993Z,10.60
2018-12-12T10:48:54.006Z,10.50
2018-12-12T10:49:54.019Z,10.80
2018-12-12T10:50:54.044Z,10.70
2018-12-12T10:51:54.062Z,10.60
2018-12-12T10:52:54.074Z,9.80
2018-12-12T10:53:54.087Z,9.60
2018-12-12T10:54:54.149Z,10.10
2018-12-12T10:55:54.130Z,10.00
2018-12-12T10:56:54.137Z,10.30
2018-12-12T10:57:54.153Z,9.30
2018-12-12T10:58:54.181Z,9.80
2018-12-12T10:59:54.223Z,9.80
2018-12-12T11:00:54.203Z,10.40
2018-12-12T11:01:54.225Z,9.70
2018-12-12T11:02:54.238Z,13.20
2018-12-12T11:03:54.255Z,9.90
2018-12-12T11:04:54.270Z,8.60
2018-12-12T11:05:54.291Z,8.30
2018-12-12T11:06:54.305Z,6.80
2018-12-12T11:07:54.336Z,7.20
2018-12-12T11:08:54.337Z,7.50
2018-12-12T11:09:54.360Z,7.40
2018-12-12T11:10:54.371Z,16.40
2018-12-12T11:11:54.389Z,14.10
2018-12-12T11:12:54.415Z,9.60
2018-12-12T11:13:54.427Z,6.80
2018-12-12T11:14:54.448Z,7.40
2018-12-12T11:15:54.461Z,15.50
2018-12-12T11:16:54.472Z,54.50
2018-12-12T11:17:54.491Z,18.50
2018-12-12T11:18:54.526Z,10.30
2018-12-12T11:19:54.528Z,32.80
2018-12-12T11:20:54.592Z,18.80
2018-12-12T11:21:54.562Z,12.10
2018-12-12T11:22:54.576Z,18.50
2018-12-12T11:23:54.598Z,10.50
2018-12-12T11:24:54.608Z,9.90
2018-12-12T11:25:54.623Z,7.20
2018-12-12T11:26:54.651Z,8.20
2018-12-12T11:27:54.658Z,10.20
2018-12-12T11:28:54.676Z,11.60
2018-12-12T11:29:54.712Z,14.20
2018-12-12T11:30:54.710Z,7.90
2018-12-12T11:31:54.727Z,7.30
2018-12-12T11:32:54.744Z,11.80
2018-12-12T11:33:54.760Z,17.00
2018-12-12T11:34:54.777Z,10.40
2018-12-12T11:35:54.790Z,9.20
2018-12-12T11:36:54.811Z,7.60
2018-12-12T11:37:54.824Z,7.60
2018-12-12T11:38:54.841Z,8.10
2018-12-12T11:39:54.857Z,11.80
2018-12-12T11:40:54.882Z,9.90
2018-12-12T11:41:54.893Z,8.70
2018-12-12T11:42:54.915Z,8.00
2018-12-12T11:43:55.048Z,8.40
2018-12-12T11:44:54.941Z,8.50
2018-12-12T11:45:54.960Z,7.90
2018-12-12T11:46:54.982Z,8.00
2018-12-12T11:47:54.993Z,7.10
2018-12-12T11:48:55.014Z,7.90
2018-12-12T11:49:55.031Z,7.30
2018-12-12T11:50:55.041Z,7.60
2018-12-12T11:51:55.057Z,8.70
2018-12-12T11:52:55.075Z,9.00
2018-12-12T11:53:55.099Z,7.40
2018-12-12T11:54:55.111Z,7.50
2018-12-12T11:55:55.125Z,7.80
2018-12-12T11:56:55.233Z,8.20
2018-12-12T11:57:55.156Z,8.90
2018-12-12T11:58:55.170Z,8.00
2018-12-12T11:59:55.203Z,6.60
2018-12-12T12:00:55.209Z,5.50
2018-12-12T12:01:55.223Z,5.40
2018-12-12T12:02:55.245Z,6.80
2018-12-12T12:03:56.875Z,6.20
2018-12-12T12:04:55.272Z,6.70
2018-12-12T12:05:55.287Z,6.80
2018-12-12T12:06:55.309Z,6.40
2018-12-12T12:07:55.323Z,5.60
2018-12-12T12:08:55.343Z,8.50
2018-12-12T12:09:55.425Z,7.60
2018-12-12T12:10:55.372Z,6.40
2018-12-12T12:11:55.387Z,5.90
2018-12-12T12:12:55.404Z,6.40
2018-12-12T12:13:55.422Z,8.10
2018-12-12T12:14:55.439Z,5.80
2018-12-12T12:15:55.460Z,6.30
2018-12-12T12:16:55.468Z,7.00
2018-12-12T12:17:55.485Z,5.90
2018-12-12T12:18:55.506Z,6.20
2018-12-12T12:19:55.527Z,6.00
2018-12-12T12:20:55.555Z,7.10
2018-12-12T12:21:55.553Z,6.30
2018-12-12T12:22:55.572Z,6.40
2018-12-12T12:23:55.584Z,6.20
2018-12-12T12:24:55.606Z,6.10
2018-12-12T12:25:55.621Z,7.40
2018-12-12T12:26:55.705Z,8.00
2018-12-12T12:27:55.649Z,7.70
2018-12-12T12:28:55.670Z,7.30
2018-12-12T12:29:55.692Z,7.20
2018-12-12T12:30:55.699Z,6.50
2018-12-12T12:31:55.715Z,6.10
2018-12-12T12:32:55.836Z,5.40
2018-12-12T12:33:55.750Z,5.30
2018-12-12T12:34:55.767Z,5.40
2018-12-12T12:35:55.778Z,5.90
2018-12-12T12:36:55.811Z,6.80
2018-12-12T12:37:55.819Z,6.80
2018-12-12T12:38:55.831Z,6.30
2018-12-12T12:39:55.844Z,6.30
2018-12-12T12:40:55.860Z,5.60
2018-12-12T12:41:55.873Z,5.80
2018-12-12T12:42:55.892Z,5.40
2018-12-12T12:43:55.904Z,6.00
2018-12-12T12:44:55.920Z,5.60
2018-12-12T12:45:56.137Z,5.90
2018-12-12T12:46:55.961Z,5.80
2018-12-12T12:47:55.979Z,6.40
2018-12-12T12:48:55.993Z,6.80
2018-12-12T12:49:56.002Z,8.30
2018-12-12T12:50:56.026Z,7.40
2018-12-12T12:51:56.047Z,6.30
2018-12-12T12:52:56.063Z,6.20
2018-12-12T12:53:56.065Z,6.00
2018-12-12T12:54:56.091Z,6.40
2018-12-12T12:55:56.106Z,6.20
2018-12-12T12:56:56.117Z,5.70
2018-12-12T12:57:56.132Z,6.30
2018-12-12T12:58:56.148Z,6.50
2018-12-12T12:59:56.160Z,7.10
2018-12-12T13:00:56.181Z,7.40
2018-12-12T13:01:56.193Z,7.00
2018-12-12T13:02:56.214Z,7.20
2018-12-12T13:03:56.225Z,7.30
2018-12-12T13:04:56.248Z,7.90
2018-12-12T13:05:56.255Z,8.30
2018-12-12T13:06:56.275Z,7.90